Time;durP1;ratioP1;P1;durP2;ratioP2;P2;SDS_P1;SDS_P2;PMS_P1;PMS_P2;Temp;Humidity;BMP_temperature;BMP_pressure;BME280_temperature;BME280_humidity;BME280_pressure;Samples;Min_cycle;Max_cycle;Signal;HPM_P1;HPM_P2
2022/02/12 00:00:33;;;;;;;25.00;9.95;;;;;;;;;;6236570;28;20049;-78
2022/02/12 00:03:35;;;;;;;26.60;10.10;;;;;;;;;;6237292;28;20407;-79
2022/02/12 00:06:36;;;;;;;24.02;8.88;;;;;;;;;;6239186;28;20088;-79
2022/02/12 00:09:38;;;;;;;23.10;8.80;;;;;;;;;;6238145;28;20041;-81
2022/02/12 00:12:40;;;;;;;15.48;6.95;;;;;;;;;;6258824;28;20047;-79
2022/02/12 00:15:42;;;;;;;15.52;6.57;;;;;;;;;;6260826;28;20210;-82
2022/02/12 00:18:44;;;;;;;17.67;5.82;;;;;;;;;;6262091;28;20123;-78
2022/02/12 00:21:45;;;;;;;15.15;6.60;;;;;;;;;;6260896;28;20675;-83
2022/02/12 00:24:47;;;;;;;16.45;6.03;;;;;;;;;;6257437;28;20079;-81
2022/02/12 00:27:48;;;;;;;12.95;5.45;;;;;;;;;;6242008;28;20040;-80
2022/02/12 00:30:50;;;;;;;14.43;6.68;;;;;;;;;;6243300;28;20675;-81
2022/02/12 00:33:52;;;;;;;16.58;6.68;;;;;;;;;;6235433;28;20047;-80
2022/02/12 00:36:53;;;;;;;15.85;6.50;;;;;;;;;;6255788;28;20408;-82
2022/02/12 00:39:58;;;;;;;14.45;5.05;;;;;;;;;;6261754;28;20063;-80
2022/02/12 00:43:00;;;;;;;14.20;5.50;;;;;;;;;;6258889;28;20053;-80
2022/02/12 00:46:01;;;;;;;16.88;6.05;;;;;;;;;;6256769;28;20520;-80
2022/02/12 00:49:03;;;;;;;14.95;5.13;;;;;;;;;;6237064;28;20252;-81
2022/02/12 00:52:05;;;;;;;17.88;5.72;;;;;;;;;;6234532;28;20045;-79
2022/02/12 00:55:07;;;;;;;13.18;6.25;;;;;;;;;;6236504;28;20222;-82
2022/02/12 00:58:09;;;;;;;15.73;6.35;;;;;;;;;;6237080;28;20095;-82
2022/02/12 01:01:10;;;;;;;12.23;6.38;;;;;;;;;;6251773;28;20132;-79
2022/02/12 01:04:13;;;;;;;15.20;6.43;;;;;;;;;;6237014;28;20538;-80
2022/02/12 01:07:14;;;;;;;14.00;5.70;;;;;;;;;;6255432;28;20047;-79
2022/02/12 01:10:16;;;;;;;15.80;6.60;;;;;;;;;;6248202;28;20064;-79
2022/02/12 01:13:18;;;;;;;21.45;6.13;;;;;;;;;;6236642;28;20042;-79
2022/02/12 01:16:21;;;;;;;14.17;4.90;;;;;;;;;;6257183;28;20725;-79
2022/02/12 01:19:22;;;;;;;12.82;4.55;;;;;;;;;;6245368;28;21144;-81
2022/02/12 01:22:25;;;;;;;12.23;4.85;;;;;;;;;;6259323;28;20720;-81
2022/02/12 01:25:27;;;;;;;12.75;5.15;;;;;;;;;;6256246;28;20045;-78
2022/02/12 01:28:29;;;;;;;15.82;4.53;;;;;;;;;;6251655;28;20052;-80
2022/02/12 01:31:30;;;;;;;17.10;5.13;;;;;;;;;;6236303;28;20059;-80
2022/02/12 01:34:36;;;;;;;14.73;5.07;;;;;;;;;;6233857;28;20100;-79
2022/02/12 01:37:39;;;;;;;11.02;4.65;;;;;;;;;;6258946;28;20048;-80
2022/02/12 01:40:41;;;;;;;9.18;4.53;;;;;;;;;;6259553;28;20090;-81
2022/02/12 01:43:42;;;;;;;11.70;4.43;;;;;;;;;;6260571;28;20049;-80
2022/02/12 01:46:44;;;;;;;10.13;4.38;;;;;;;;;;6259876;28;20048;-81
2022/02/12 01:49:46;;;;;;;8.23;4.18;;;;;;;;;;6259848;28;20052;-79
2022/02/12 01:52:49;;;;;;;13.57;5.72;;;;;;;;;;6260826;28;20045;-80
2022/02/12 01:55:51;;;;;;;17.35;5.53;;;;;;;;;;6257395;28;20040;-81
2022/02/12 01:58:52;;;;;;;11.73;5.43;;;;;;;;;;6242156;28;20045;-78
2022/02/12 02:01:54;;;;;;;10.32;4.40;;;;;;;;;;6248650;28;20048;-81
2022/02/12 02:04:56;;;;;;;11.45;4.80;;;;;;;;;;6250704;28;20518;-79
2022/02/12 02:07:58;;;;;;;10.63;4.88;;;;;;;;;;6249599;28;20113;-79
2022/02/12 02:11:00;;;;;;;10.63;5.03;;;;;;;;;;6241011;28;20052;-78
2022/02/12 02:14:03;;;;;;;12.25;4.53;;;;;;;;;;6265961;28;20533;-79
2022/02/12 02:17:07;;;;;;;12.40;4.22;;;;;;;;;;6246723;28;20096;-80
2022/02/12 02:20:10;;;;;;;12.10;4.32;;;;;;;;;;6262446;28;20055;-80
2022/02/12 02:23:12;;;;;;;13.18;4.95;;;;;;;;;;6283433;28;20041;-80
2022/02/12 02:26:14;;;;;;;10.70;4.38;;;;;;;;;;6262906;28;20393;-81
2022/02/12 02:29:16;;;;;;;15.45;4.63;;;;;;;;;;6273257;28;20072;-80
2022/02/12 02:32:18;;;;;;;7.07;3.53;;;;;;;;;;6259881;28;20146;-79
2022/02/12 02:35:22;;;;;;;10.05;4.45;;;;;;;;;;6242779;28;20049;-80
2022/02/12 02:38:24;;;;;;;14.20;4.25;;;;;;;;;;6253785;28;20052;-78
2022/02/12 02:41:26;;;;;;;10.38;3.33;;;;;;;;;;6254370;28;20052;-78
2022/02/12 02:44:27;;;;;;;11.82;4.05;;;;;;;;;;6242870;28;20049;-79
2022/02/12 02:47:33;;;;;;;11.43;4.18;;;;;;;;;;6266208;28;20115;-77
2022/02/12 02:57:18;;;;;;;12.73;4.18;;;;;;;;;;6258854;28;20044;-80
2022/02/12 03:00:20;;;;;;;14.95;4.25;;;;;;;;;;6258885;28;20053;-79
2022/02/12 03:03:22;;;;;;;13.70;4.30;;;;;;;;;;6253441;28;20052;-80
2022/02/12 03:06:26;;;;;;;11.25;4.25;;;;;;;;;;6255202;28;20665;-79
2022/02/12 03:09:27;;;;;;;7.30;3.60;;;;;;;;;;6238192;28;20060;-78
2022/02/12 03:12:29;;;;;;;7.70;3.58;;;;;;;;;;6248221;28;20580;-79
2022/02/12 03:15:31;;;;;;;9.85;4.47;;;;;;;;;;6265923;28;20041;-81
2022/02/12 03:18:32;;;;;;;13.40;4.10;;;;;;;;;;6247254;28;20079;-80
2022/02/12 03:21:34;;;;;;;8.35;3.70;;;;;;;;;;6290376;28;20044;-83
2022/02/12 03:24:35;;;;;;;12.00;4.10;;;;;;;;;;6262186;28;20064;-80
2022/02/12 03:27:37;;;;;;;11.35;4.18;;;;;;;;;;6265241;28;20045;-80
2022/02/12 03:30:41;;;;;;;11.00;3.53;;;;;;;;;;6262130;28;20053;-79
2022/02/12 03:33:43;;;;;;;13.68;4.38;;;;;;;;;;6246754;28;20044;-80
2022/02/12 03:36:47;;;;;;;7.10;4.00;;;;;;;;;;6264420;28;20114;-83
2022/02/12 03:39:48;;;;;;;10.55;3.63;;;;;;;;;;6268337;28;20126;-78
2022/02/12 03:42:50;;;;;;;12.68;3.03;;;;;;;;;;6286068;28;20064;-77
2022/02/12 03:45:53;;;;;;;6.90;3.35;;;;;;;;;;6296616;28;20144;-78
2022/02/12 03:48:55;;;;;;;10.60;2.70;;;;;;;;;;6255931;28;20060;-80
2022/02/12 03:51:56;;;;;;;8.55;3.08;;;;;;;;;;6254051;28;20073;-80
2022/02/12 03:54:58;;;;;;;10.23;3.63;;;;;;;;;;6256561;28;20388;-79
2022/02/12 03:57:59;;;;;;;9.30;3.92;;;;;;;;;;6275896;28;20123;-78
2022/02/12 04:01:01;;;;;;;9.32;3.53;;;;;;;;;;6274674;28;20133;-78
2022/02/12 04:04:03;;;;;;;12.05;3.83;;;;;;;;;;6254836;28;20049;-78
2022/02/12 04:07:05;;;;;;;8.80;3.35;;;;;;;;;;6255787;28;20101;-79
2022/02/12 04:10:09;;;;;;;12.25;4.00;;;;;;;;;;6259686;28;20090;-77
2022/02/12 04:13:10;;;;;;;14.15;4.03;;;;;;;;;;6269359;28;20429;-81
2022/02/12 04:16:12;;;;;;;17.17;3.83;;;;;;;;;;6264783;28;20049;-80
2022/02/12 04:19:13;;;;;;;11.02;3.60;;;;;;;;;;6273552;28;20055;-79
2022/02/12 04:22:15;;;;;;;13.02;3.78;;;;;;;;;;6288439;28;20443;-81
2022/02/12 04:25:19;;;;;;;8.90;3.85;;;;;;;;;;6273341;28;20503;-80
2022/02/12 04:28:21;;;;;;;8.65;3.42;;;;;;;;;;6264868;28;20041;-81
2022/02/12 04:31:23;;;;;;;10.40;3.17;;;;;;;;;;6254579;28;20498;-79
2022/02/12 04:34:24;;;;;;;12.57;3.70;;;;;;;;;;6237122;28;20125;-78
2022/02/12 04:37:27;;;;;;;9.70;3.60;;;;;;;;;;6264032;28;20125;-80
2022/02/12 04:40:29;;;;;;;10.93;3.45;;;;;;;;;;6263344;28;20041;-81
2022/02/12 04:43:31;;;;;;;20.08;4.47;;;;;;;;;;6261245;28;20052;-78
2022/02/12 04:46:33;;;;;;;13.68;4.15;;;;;;;;;;6254764;28;20044;-78
2022/02/12 04:49:36;;;;;;;27.92;5.22;;;;;;;;;;6253637;28;20047;-81
2022/02/12 04:52:38;;;;;;;27.70;5.68;;;;;;;;;;6239518;28;20510;-79
2022/02/12 04:55:40;;;;;;;21.05;4.32;;;;;;;;;;6255611;28;20105;-79
2022/02/12 04:58:41;;;;;;;18.25;4.93;;;;;;;;;;6242594;28;20127;-78
2022/02/12 05:01:43;;;;;;;16.20;5.40;;;;;;;;;;6264528;28;20179;-79
2022/02/12 05:04:45;;;;;;;21.08;5.22;;;;;;;;;;6266160;28;20634;-81
2022/02/12 05:07:47;;;;;;;26.88;5.10;;;;;;;;;;6264452;28;20201;-81
2022/02/12 05:10:48;;;;;;;23.35;5.75;;;;;;;;;;6253894;28;20128;-79
2022/02/12 05:13:50;;;;;;;14.55;5.10;;;;;;;;;;6240425;28;20133;-80
2022/02/12 05:16:52;;;;;;;25.58;5.78;;;;;;;;;;6249123;28;20124;-80
2022/02/12 05:19:53;;;;;;;21.80;5.60;;;;;;;;;;6268598;28;20045;-79
2022/02/12 05:22:55;;;;;;;15.27;4.55;;;;;;;;;;6269122;28;20083;-79
2022/02/12 05:25:57;;;;;;;23.27;5.07;;;;;;;;;;6264880;28;20095;-80
2022/02/12 05:28:59;;;;;;;21.13;5.25;;;;;;;;;;6263456;28;20123;-81
2022/02/12 05:32:01;;;;;;;17.52;4.82;;;;;;;;;;6261382;28;20182;-81
2022/02/12 05:35:03;;;;;;;17.23;4.82;;;;;;;;;;6261446;28;20102;-79
2022/02/12 05:38:05;;;;;;;20.52;6.38;;;;;;;;;;6261780;28;20049;-80
2022/02/12 05:41:08;;;;;;;18.55;5.05;;;;;;;;;;6251982;28;20131;-79
2022/02/12 05:44:09;;;;;;;21.00;4.50;;;;;;;;;;6239044;28;20052;-80
2022/02/12 05:47:11;;;;;;;13.93;4.38;;;;;;;;;;6261772;28;20045;-80
2022/02/12 05:50:13;;;;;;;18.20;5.38;;;;;;;;;;6262386;28;20078;-80
2022/02/12 05:53:15;;;;;;;26.63;6.00;;;;;;;;;;6246823;28;20048;-79
2022/02/12 05:56:17;;;;;;;16.60;5.72;;;;;;;;;;6267913;28;20600;-80
2022/02/12 05:59:19;;;;;;;25.30;5.38;;;;;;;;;;6266165;28;20409;-83
2022/02/12 06:02:20;;;;;;;13.57;5.75;;;;;;;;;;6266342;28;20406;-82
2022/02/12 06:05:24;;;;;;;15.18;5.72;;;;;;;;;;6265253;28;20049;-81
2022/02/12 06:08:25;;;;;;;25.02;6.45;;;;;;;;;;6266251;28;20476;-82
2022/02/12 06:11:27;;;;;;;20.02;5.93;;;;;;;;;;6250954;28;20124;-78
2022/02/12 06:14:29;;;;;;;24.80;6.30;;;;;;;;;;6258157;28;20127;-81
2022/02/12 06:17:30;;;;;;;21.13;5.57;;;;;;;;;;6241638;28;20059;-78
2022/02/12 06:20:32;;;;;;;18.67;5.47;;;;;;;;;;6281379;28;20186;-81
2022/02/12 06:23:37;;;;;;;21.20;5.32;;;;;;;;;;6277437;28;20124;-82
2022/02/12 06:26:43;;;;;;;16.50;4.72;;;;;;;;;;6267294;28;20037;-79
2022/02/12 06:29:45;;;;;;;18.83;5.20;;;;;;;;;;6243615;28;20136;-79
2022/02/12 06:32:47;;;;;;;34.92;6.22;;;;;;;;;;6247303;28;20047;-82
2022/02/12 06:35:48;;;;;;;25.23;7.68;;;;;;;;;;6272616;28;20132;-81
2022/02/12 06:38:50;;;;;;;23.83;6.60;;;;;;;;;;6253696;28;20045;-80
2022/02/12 06:41:52;;;;;;;29.13;10.15;;;;;;;;;;6259523;28;20077;-79
2022/02/12 06:44:53;;;;;;;22.92;7.63;;;;;;;;;;6260548;28;20211;-78
2022/02/12 06:47:55;;;;;;;25.13;8.43;;;;;;;;;;6257895;28;20047;-81
2022/02/12 06:50:57;;;;;;;25.38;7.90;;;;;;;;;;6247920;28;20529;-81
2022/02/12 06:53:58;;;;;;;20.45;6.32;;;;;;;;;;6246912;28;20420;-80
2022/02/12 06:57:00;;;;;;;16.58;5.65;;;;;;;;;;6246306;28;20042;-81
2022/02/12 07:00:03;;;;;;;17.83;6.75;;;;;;;;;;6250036;28;20049;-80
2022/02/12 07:03:05;;;;;;;30.25;11.73;;;;;;;;;;6265875;28;20075;-79
2022/02/12 07:06:06;;;;;;;30.92;12.77;;;;;;;;;;6253636;28;20045;-79
2022/02/12 07:09:11;;;;;;;25.42;9.52;;;;;;;;;;6254538;28;20045;-80
2022/02/12 07:12:12;;;;;;;24.80;8.27;;;;;;;;;;6245363;28;20528;-80
2022/02/12 07:15:14;;;;;;;27.58;8.80;;;;;;;;;;6251698;28;20049;-77
2022/02/12 07:18:16;;;;;;;34.40;9.70;;;;;;;;;;6279364;28;20055;-76
2022/02/12 07:21:17;;;;;;;35.53;15.18;;;;;;;;;;6283666;28;20065;-77
2022/02/12 07:24:19;;;;;;;22.33;6.70;;;;;;;;;;6280038;28;20105;-78
2022/02/12 07:27:20;;;;;;;29.73;8.20;;;;;;;;;;6277387;28;20057;-78
2022/02/12 07:30:23;;;;;;;25.30;8.75;;;;;;;;;;6273734;28;20064;-81
2022/02/12 07:33:26;;;;;;;52.70;16.20;;;;;;;;;;6289927;28;20044;-78
2022/02/12 07:36:27;;;;;;;23.27;8.38;;;;;;;;;;6261296;28;20041;-79
2022/02/12 07:39:29;;;;;;;12.15;5.38;;;;;;;;;;6270849;28;20123;-78
2022/02/12 07:42:31;;;;;;;11.98;5.25;;;;;;;;;;6260222;28;20049;-82
2022/02/12 07:45:32;;;;;;;9.82;5.05;;;;;;;;;;6247489;28;20040;-78
2022/02/12 07:48:34;;;;;;;42.80;16.58;;;;;;;;;;6266725;28;20029;-81
2022/02/12 07:51:36;;;;;;;16.80;7.72;;;;;;;;;;6261269;28;20051;-80
2022/02/12 07:54:37;;;;;;;12.45;6.20;;;;;;;;;;6252257;28;20661;-80
2022/02/12 07:57:39;;;;;;;13.80;5.60;;;;;;;;;;6261761;28;20061;-83
2022/02/12 08:00:41;;;;;;;13.73;6.32;;;;;;;;;;6268049;28;20053;-79
2022/02/12 08:03:43;;;;;;;16.77;6.72;;;;;;;;;;6262331;28;20096;-80
2022/02/12 08:13:32;;;;;;;18.67;8.70;;;;;;;;;;6271179;28;20501;-80
2022/02/12 08:16:33;;;;;;;21.77;9.77;;;;;;;;;;6259603;28;20490;-81
2022/02/12 08:19:37;;;;;;;19.10;8.75;;;;;;;;;;6263370;28;20053;-80
2022/02/12 08:22:40;;;;;;;17.45;8.55;;;;;;;;;;6262484;28;20045;-82
2022/02/12 08:25:42;;;;;;;15.07;8.20;;;;;;;;;;6252981;28;20061;-78
2022/02/12 08:28:46;;;;;;;17.02;7.80;;;;;;;;;;6256538;28;20056;-78
2022/02/12 08:31:47;;;;;;;27.35;11.30;;;;;;;;;;6255348;28;20417;-78
2022/02/12 08:34:52;;;;;;;28.27;11.13;;;;;;;;;;6248745;28;20516;-79
2022/02/12 08:37:53;;;;;;;22.63;9.38;;;;;;;;;;6254172;28;20413;-79
2022/02/12 08:40:56;;;;;;;21.25;9.18;;;;;;;;;;6256301;28;20043;-78
2022/02/12 08:43:58;;;;;;;22.27;10.67;;;;;;;;;;6251952;28;20057;-79
2022/02/12 08:46:59;;;;;;;24.33;9.50;;;;;;;;;;6258443;28;20127;-80
2022/02/12 08:50:01;;;;;;;15.60;7.25;;;;;;;;;;6254834;28;20083;-80
2022/02/12 08:53:06;;;;;;;15.93;7.78;;;;;;;;;;6238874;28;20379;-81
2022/02/12 08:56:07;;;;;;;25.88;10.23;;;;;;;;;;6257695;28;20037;-79
2022/02/12 08:59:10;;;;;;;25.75;13.00;;;;;;;;;;6258165;28;20052;-80
2022/02/12 09:02:12;;;;;;;58.15;28.15;;;;;;;;;;6253077;28;20068;-79
2022/02/12 09:05:14;;;;;;;21.07;8.53;;;;;;;;;;6263171;28;20079;-81
2022/02/12 09:08:15;;;;;;;15.70;5.93;;;;;;;;;;6254020;28;20045;-78
2022/02/12 09:11:21;;;;;;;20.38;10.20;;;;;;;;;;6257157;28;20175;-80
2022/02/12 09:14:23;;;;;;;18.13;5.70;;;;;;;;;;6260231;28;20187;-78
2022/02/12 09:17:25;;;;;;;8.73;4.50;;;;;;;;;;6251203;28;20057;-79
2022/02/12 09:20:27;;;;;;;6.57;3.78;;;;;;;;;;6251698;28;20517;-81
2022/02/12 09:23:28;;;;;;;15.20;5.10;;;;;;;;;;6251058;28;20128;-80
2022/02/12 09:26:30;;;;;;;12.50;5.05;;;;;;;;;;6254903;28;20498;-79
2022/02/12 09:29:34;;;;;;;11.05;4.35;;;;;;;;;;6258657;28;20045;-79
2022/02/12 09:32:41;;;;;;;11.18;3.78;;;;;;;;;;6256196;28;20083;-81
2022/02/12 09:35:42;;;;;;;11.00;4.60;;;;;;;;;;6257335;28;20109;-80
2022/02/12 09:38:44;;;;;;;16.35;6.47;;;;;;;;;;6275820;28;20053;-80
2022/02/12 09:41:46;;;;;;;13.35;5.50;;;;;;;;;;6238708;28;20203;-78
2022/02/12 09:44:49;;;;;;;14.82;5.43;;;;;;;;;;6241636;28;20064;-81
2022/02/12 09:47:51;;;;;;;12.77;5.80;;;;;;;;;;6267931;28;20059;-81
2022/02/12 09:50:52;;;;;;;14.02;6.50;;;;;;;;;;6290237;28;20074;-80
2022/02/12 09:53:55;;;;;;;14.18;5.70;;;;;;;;;;6277944;28;20190;-79
2022/02/12 09:56:58;;;;;;;11.02;5.57;;;;;;;;;;6249331;28;20088;-78
2022/02/12 10:00:04;;;;;;;12.43;5.53;;;;;;;;;;6262640;28;20048;-79
2022/02/12 10:03:06;;;;;;;15.63;5.90;;;;;;;;;;6249501;28;20184;-81
2022/02/12 10:06:09;;;;;;;15.02;6.40;;;;;;;;;;6254979;28;20053;-80
2022/02/12 10:09:11;;;;;;;12.75;5.50;;;;;;;;;;6264909;28;20670;-79
2022/02/12 10:12:23;;;;;;;15.50;5.18;;;;;;;;;;6280141;28;20127;-80
2022/02/12 10:15:26;;;;;;;10.10;5.00;;;;;;;;;;6296991;28;20040;-79
2022/02/12 10:18:30;;;;;;;11.07;5.03;;;;;;;;;;6287101;28;20053;-80
2022/02/12 10:21:36;;;;;;;12.70;4.18;;;;;;;;;;6280395;28;20061;-82
2022/02/12 10:25:03;;;;;;;10.75;4.70;;;;;;;;;;6259265;28;20045;-81
2022/02/12 10:28:07;;;;;;;11.55;5.03;;;;;;;;;;6268580;28;20060;-82
2022/02/12 10:31:10;;;;;;;10.52;3.75;;;;;;;;;;6265821;28;20041;-79
2022/02/12 10:34:12;;;;;;;8.30;2.92;;;;;;;;;;6245977;28;20045;-80
2022/02/12 10:37:17;;;;;;;6.43;2.30;;;;;;;;;;6267227;28;20049;-82
2022/02/12 10:40:18;;;;;;;5.43;2.53;;;;;;;;;;6284103;28;20456;-78
2022/02/12 10:43:21;;;;;;;5.57;2.50;;;;;;;;;;6275090;28;20032;-82
2022/02/12 10:46:23;;;;;;;6.72;2.45;;;;;;;;;;6295075;28;20478;-81
2022/02/12 10:49:25;;;;;;;8.88;2.40;;;;;;;;;;6279296;28;20048;-80
2022/02/12 10:52:39;;;;;;;5.80;2.78;;;;;;;;;;6267606;28;20832;-81
2022/02/12 10:55:42;;;;;;;5.47;2.35;;;;;;;;;;6259562;28;20043;-82
2022/02/12 10:58:44;;;;;;;11.02;2.63;;;;;;;;;;6215044;28;20101;-76
2022/02/12 11:02:20;;;;;;;5.55;2.40;;;;;;;;;;6259310;28;20063;-79
2022/02/12 11:05:24;;;;;;;6.47;2.15;;;;;;;;;;6267155;28;20041;-80
2022/02/12 11:08:26;;;;;;;7.80;2.45;;;;;;;;;;6268499;28;20596;-78
2022/02/12 11:11:30;;;;;;;5.70;2.47;;;;;;;;;;6256497;28;20127;-81
2022/02/12 11:14:34;;;;;;;6.63;2.50;;;;;;;;;;6280292;28;20481;-80
2022/02/12 11:17:36;;;;;;;6.28;2.30;;;;;;;;;;6287387;28;20062;-79
2022/02/12 11:20:40;;;;;;;9.82;2.70;;;;;;;;;;6292891;28;20040;-80
2022/02/12 11:24:01;;;;;;;10.40;4.68;;;;;;;;;;6294545;28;20102;-80
2022/02/12 11:27:19;;;;;;;6.15;3.13;;;;;;;;;;6269816;28;20079;-80
2022/02/12 11:30:21;;;;;;;7.00;2.42;;;;;;;;;;6268461;28;20048;-82
2022/02/12 11:33:24;;;;;;;6.68;2.40;;;;;;;;;;6268371;28;20124;-82
2022/02/12 11:36:26;;;;;;;6.45;2.65;;;;;;;;;;6253608;28;20076;-79
2022/02/12 11:39:28;;;;;;;6.13;2.55;;;;;;;;;;6278503;28;20045;-79
2022/02/12 11:42:49;;;;;;;8.77;2.58;;;;;;;;;;6292767;28;20044;-79
2022/02/12 11:45:51;;;;;;;7.18;3.22;;;;;;;;;;6267515;28;20175;-81
2022/02/12 11:49:28;;;;;;;7.72;2.80;;;;;;;;;;6242672;28;20049;-80
2022/02/12 11:52:30;;;;;;;9.88;2.90;;;;;;;;;;6261959;28;20056;-80
2022/02/12 11:55:33;;;;;;;6.55;2.50;;;;;;;;;;6249942;28;20073;-78
2022/02/12 11:58:40;;;;;;;;;;;;;;;;;;6259527;28;20059;-80
2022/02/12 12:01:44;;;;;;;7.45;2.60;;;;;;;;;;6249100;28;19920;-80
2022/02/12 12:05:25;;;;;;;6.32;2.50;;;;;;;;;;6246197;28;20033;-80
2022/02/12 12:08:26;;;;;;;7.43;2.42;;;;;;;;;;6254564;28;20055;-80
2022/02/12 12:11:28;;;;;;;6.70;2.78;;;;;;;;;;6257782;28;20043;-78
2022/02/12 12:14:29;;;;;;;6.50;2.42;;;;;;;;;;6267424;28;20044;-79
2022/02/12 12:17:36;;;;;;;7.53;3.15;;;;;;;;;;6262113;28;20062;-81
2022/02/12 12:20:43;;;;;;;7.78;2.20;;;;;;;;;;6266850;28;20124;-79
2022/02/12 12:23:55;;;;;;;8.90;2.58;;;;;;;;;;6267192;28;20120;-81
2022/02/12 12:26:57;;;;;;;5.82;2.67;;;;;;;;;;6243230;28;20130;-79
2022/02/12 12:33:38;;;;;;;6.60;3.10;;;;;;;;;;6265480;28;20124;-80
2022/02/12 12:36:41;;;;;;;6.63;2.42;;;;;;;;;;6265057;28;20036;-78
2022/02/12 12:39:43;;;;;;;3.92;1.77;;;;;;;;;;6274556;28;20045;-79
2022/02/12 12:42:45;;;;;;;4.80;2.20;;;;;;;;;;6243253;28;20101;-81
2022/02/12 12:45:47;;;;;;;3.85;2.08;;;;;;;;;;6258703;28;20486;-81
2022/02/12 12:48:48;;;;;;;3.08;2.13;;;;;;;;;;6265067;28;20079;-79
2022/02/12 12:51:50;;;;;;;5.38;1.70;;;;;;;;;;6267094;28;20132;-81
2022/02/12 12:54:58;;;;;;;4.60;2.10;;;;;;;;;;6265127;28;20620;-81
2022/02/12 12:58:10;;;;;;;5.90;2.00;;;;;;;;;;6256399;28;20056;-80
2022/02/12 13:01:12;;;;;;;5.28;1.80;;;;;;;;;;6274163;28;20049;-80
2022/02/12 13:04:13;;;;;;;5.85;1.85;;;;;;;;;;6241560;28;20041;-79
2022/02/12 13:07:22;;;;;;;6.70;2.30;;;;;;;;;;6238946;28;20048;-78
2022/02/12 13:10:26;;;;;;;4.53;1.50;;;;;;;;;;6252542;28;20051;-76
2022/02/12 13:13:29;;;;;;;4.35;1.88;;;;;;;;;;6263025;28;20079;-79
2022/02/12 13:16:35;;;;;;;4.43;1.50;;;;;;;;;;6244525;28;20141;-80
2022/02/12 13:19:37;;;;;;;3.63;1.08;;;;;;;;;;6251277;28;20051;-79
2022/02/12 13:22:50;;;;;;;2.65;0.90;;;;;;;;;;6249863;28;20046;-78
2022/02/12 13:25:51;;;;;;;3.72;1.27;;;;;;;;;;6246035;28;20078;-80
2022/02/12 13:28:53;;;;;;;2.28;1.33;;;;;;;;;;6256387;28;20044;-80
2022/02/12 13:31:57;;;;;;;3.22;1.13;;;;;;;;;;6251994;28;20098;-79
2022/02/12 13:35:02;;;;;;;2.63;1.58;;;;;;;;;;6250213;28;20189;-80
2022/02/12 13:38:04;;;;;;;4.45;1.17;;;;;;;;;;6252301;28;20052;-79
2022/02/12 13:41:07;;;;;;;4.90;1.40;;;;;;;;;;6246006;28;20038;-81
2022/02/12 13:44:09;;;;;;;2.77;1.37;;;;;;;;;;6242848;28;20069;-80
2022/02/12 13:47:10;;;;;;;3.67;2.22;;;;;;;;;;6253597;28;20052;-81
2022/02/12 13:50:21;;;;;;;3.78;2.08;;;;;;;;;;6251048;28;20701;-82
2022/02/12 13:53:26;;;;;;;4.15;2.00;;;;;;;;;;6242809;28;20431;-79
2022/02/12 13:56:38;;;;;;;7.22;2.45;;;;;;;;;;6254307;28;20037;-83
2022/02/12 13:59:42;;;;;;;4.20;1.77;;;;;;;;;;6253250;28;20049;-81
2022/02/12 14:02:50;;;;;;;4.03;1.92;;;;;;;;;;6251009;28;20044;-81
2022/02/12 14:05:51;;;;;;;3.67;1.35;;;;;;;;;;6258002;28;20045;-82
2022/02/12 14:08:53;;;;;;;5.68;1.65;;;;;;;;;;6257263;28;20045;-81
2022/02/12 14:11:54;;;;;;;6.38;1.88;;;;;;;;;;6260485;28;20128;-81
2022/02/12 14:14:56;;;;;;;4.75;2.40;;;;;;;;;;6263201;28;20576;-82
2022/02/12 14:17:58;;;;;;;5.80;2.47;;;;;;;;;;6263317;28;20210;-82
2022/02/12 14:20:59;;;;;;;5.53;2.47;;;;;;;;;;6244739;28;20098;-81
2022/02/12 14:24:03;;;;;;;3.17;2.22;;;;;;;;;;6268467;28;20184;-80
2022/02/12 14:27:05;;;;;;;3.33;1.73;;;;;;;;;;6240212;28;20049;-82
2022/02/12 14:30:09;;;;;;;3.90;2.60;;;;;;;;;;6239039;28;20618;-81
2022/02/12 14:33:11;;;;;;;4.72;1.90;;;;;;;;;;6237700;28;20177;-81
2022/02/12 14:36:13;;;;;;;2.42;1.80;;;;;;;;;;6237218;28;20421;-79
2022/02/12 14:39:14;;;;;;;17.98;7.07;;;;;;;;;;6266970;28;20128;-77
2022/02/12 14:42:16;;;;;;;6.30;3.03;;;;;;;;;;6261578;28;20052;-81
2022/02/12 14:45:17;;;;;;;10.82;2.92;;;;;;;;;;6263080;28;20051;-81
2022/02/12 14:48:19;;;;;;;3.72;2.13;;;;;;;;;;6256998;28;20555;-82
2022/02/12 14:51:21;;;;;;;3.17;1.85;;;;;;;;;;6262111;28;20052;-78
2022/02/12 14:54:28;;;;;;;3.67;1.50;;;;;;;;;;6263146;28;20454;-80
2022/02/12 14:57:31;;;;;;;4.00;1.70;;;;;;;;;;6246927;28;20045;-81
2022/02/12 15:00:33;;;;;;;3.17;1.80;;;;;;;;;;6245794;28;20120;-78
2022/02/12 15:03:35;;;;;;;5.72;2.55;;;;;;;;;;6246356;28;20045;-81
2022/02/12 15:06:37;;;;;;;9.20;4.85;;;;;;;;;;6246824;28;20056;-79
2022/02/12 15:09:38;;;;;;;8.07;4.32;;;;;;;;;;6258430;28;20110;-81
2022/02/12 15:12:40;;;;;;;6.68;3.15;;;;;;;;;;6259443;28;20042;-82
2022/02/12 15:15:41;;;;;;;13.15;8.43;;;;;;;;;;6250208;28;20587;-79
2022/02/12 15:18:43;;;;;;;6.68;3.22;;;;;;;;;;6271118;28;20053;-82
2022/02/12 15:21:45;;;;;;;6.18;3.40;;;;;;;;;;6270663;28;20120;-80
2022/02/12 15:24:47;;;;;;;5.72;3.28;;;;;;;;;;6267776;28;20041;-78
2022/02/12 15:27:48;;;;;;;7.00;3.90;;;;;;;;;;6265870;28;20472;-79
2022/02/12 15:30:50;;;;;;;7.43;3.60;;;;;;;;;;6244505;28;20517;-79
2022/02/12 15:33:52;;;;;;;6.85;3.55;;;;;;;;;;6269761;28;20061;-80
2022/02/12 15:36:53;;;;;;;7.85;3.92;;;;;;;;;;6268151;28;20122;-78
2022/02/12 15:39:55;;;;;;;6.90;3.42;;;;;;;;;;6278361;28;20052;-80
2022/02/12 15:42:58;;;;;;;9.98;4.18;;;;;;;;;;6268299;28;20172;-82
2022/02/12 15:46:01;;;;;;;9.20;4.65;;;;;;;;;;6262841;28;20042;-78
2022/02/12 15:49:03;;;;;;;;;;;;;;;;;;6246522;28;20048;-81
2022/02/12 15:52:06;;;;;;;9.20;2.92;;;;;;;;;;6243809;28;19921;-80
2022/02/12 15:55:07;;;;;;;4.70;2.97;;;;;;;;;;6245903;28;20105;-78
2022/02/12 15:58:10;;;;;;;7.18;4.65;;;;;;;;;;6245802;28;20056;-78
2022/02/12 16:01:16;;;;;;;10.63;4.47;;;;;;;;;;6248505;28;20109;-77
2022/02/12 16:04:18;;;;;;;6.68;3.25;;;;;;;;;;6272062;28;20033;-78
2022/02/12 16:07:19;;;;;;;41.50;16.27;;;;;;;;;;6248709;28;20052;-79
2022/02/12 16:10:34;;;;;;;9.50;5.15;;;;;;;;;;6247972;28;20056;-78
2022/02/12 16:13:39;;;;;;;14.73;8.02;;;;;;;;;;6259857;28;20056;-78
2022/02/12 16:16:45;;;;;;;10.30;7.10;;;;;;;;;;6270918;28;20041;-78
2022/02/12 16:19:47;;;;;;;8.95;4.53;;;;;;;;;;6306441;28;20294;-78
2022/02/12 16:22:49;;;;;;;10.63;4.85;;;;;;;;;;6306856;28;20127;-78
2022/02/12 16:25:50;;;;;;;11.80;6.43;;;;;;;;;;6261597;28;20045;-78
2022/02/12 16:28:52;;;;;;;9.13;4.78;;;;;;;;;;6267872;28;20084;-78
2022/02/12 16:31:53;;;;;;;8.50;5.15;;;;;;;;;;6244566;28;20048;-80
2022/02/12 16:34:55;;;;;;;9.25;5.05;;;;;;;;;;6243810;28;20499;-79
2022/02/12 16:37:58;;;;;;;9.88;5.00;;;;;;;;;;6254377;28;20052;-81
2022/02/12 16:40:59;;;;;;;8.60;4.68;;;;;;;;;;6270238;28;20060;-80
2022/02/12 16:44:01;;;;;;;19.05;8.95;;;;;;;;;;6242608;28;20053;-79
2022/02/12 16:47:03;;;;;;;14.35;7.10;;;;;;;;;;6241065;28;20041;-78
2022/02/12 16:50:06;;;;;;;23.60;10.82;;;;;;;;;;6240486;28;20056;-81
2022/02/12 16:53:08;;;;;;;15.68;9.32;;;;;;;;;;6243335;28;20050;-82
2022/02/12 16:56:11;;;;;;;57.65;25.92;;;;;;;;;;6243068;28;20073;-80
2022/02/12 16:59:13;;;;;;;68.93;30.27;;;;;;;;;;6244522;28;20041;-82
2022/02/12 17:02:14;;;;;;;98.05;40.90;;;;;;;;;;6264180;28;20113;-80
2022/02/12 17:05:17;;;;;;;28.58;15.35;;;;;;;;;;6267422;28;20064;-78
2022/02/12 17:08:23;;;;;;;40.60;19.23;;;;;;;;;;6261929;28;20506;-81
2022/02/12 17:11:27;;;;;;;83.47;38.65;;;;;;;;;;6263534;28;20049;-79
2022/02/12 17:14:29;;;;;;;22.17;10.52;;;;;;;;;;6255380;28;20104;-80
2022/02/12 17:17:31;;;;;;;24.33;13.55;;;;;;;;;;6258974;28;20052;-79
2022/02/12 17:20:33;;;;;;;8.88;5.47;;;;;;;;;;6249841;28;20410;-79
2022/02/12 17:23:34;;;;;;;23.85;11.77;;;;;;;;;;6239588;28;20053;-81
2022/02/12 17:26:37;;;;;;;18.77;9.57;;;;;;;;;;6247709;28;20147;-78
2022/02/12 17:29:39;;;;;;;16.10;8.60;;;;;;;;;;6254671;28;20065;-79
2022/02/12 17:32:40;;;;;;;20.60;8.95;;;;;;;;;;6261835;28;20069;-80
2022/02/12 17:35:42;;;;;;;16.95;7.63;;;;;;;;;;6278995;28;20056;-81
2022/02/12 17:38:46;;;;;;;26.50;10.27;;;;;;;;;;6276969;28;20093;-79
2022/02/12 17:41:48;;;;;;;19.38;8.35;;;;;;;;;;6292217;28;20037;-79
2022/02/12 17:44:50;;;;;;;22.17;9.52;;;;;;;;;;6292587;28;20078;-82
2022/02/12 17:47:51;;;;;;;28.17;9.77;;;;;;;;;;6261361;28;20050;-82
2022/02/12 17:50:53;;;;;;;15.82;7.00;;;;;;;;;;6257524;28;20116;-81
2022/02/12 17:53:55;;;;;;;14.68;6.75;;;;;;;;;;6257674;28;20055;-80
2022/02/12 17:56:56;;;;;;;18.20;8.82;;;;;;;;;;6248919;28;20065;-79
2022/02/12 17:59:58;;;;;;;30.98;11.23;;;;;;;;;;6239839;28;20064;-81
2022/02/12 18:03:00;;;;;;;23.65;9.73;;;;;;;;;;6262828;28;20127;-79
2022/02/12 18:06:01;;;;;;;22.13;8.50;;;;;;;;;;6263431;28;20130;-78
2022/02/12 18:12:24;;;;;;;22.25;11.52;;;;;;;;;;6254016;28;20719;-80
2022/02/12 18:15:25;;;;;;;20.00;10.20;;;;;;;;;;6241295;28;20125;-77
2022/02/12 18:18:27;;;;;;;19.33;10.18;;;;;;;;;;6260465;28;20095;-81
2022/02/12 18:21:29;;;;;;;20.92;11.57;;;;;;;;;;6264624;28;20068;-78
2022/02/12 18:24:32;;;;;;;15.77;9.80;;;;;;;;;;6256893;28;20034;-81